Terminal Aerodrome Forecast
Issued by NWS

Home | Current Version | Previous Version | Graphics & Text | Print | Product List | Glossary On
Versions: 1 2 3 4 5 6 7 8 9 10 11 12 13 14 15 16 17 18 19 20
000
FTUS43 KGRB 261734
TAFATW
TAF
KATW 261734Z 2618/2718 29014G24KT P6SM VCSH BKN030 OVC045
      TEMPO 2618/2620 6SM -SHRA
     FM262000 34013G20KT P6SM VCSH SCT035 BKN050
      TEMPO 2620/2624 -SHRA
     FM270000 34009KT P6SM BKN150
     FM270200 27005KT P6SM FEW200=

USA.gov is the U.S. government's official web portal to all federal, state and local government web resources and services.